Terminal Aerodrome Forecast
Issued by NWS

Home | Current Version | Previous Version | Graphics & Text | Print | Product List | Glossary Off
Versions: 1 2 3 4 5 6 7 8 9 10 11 12 13 14 15 16 17 18 19 20 21 22 23 24 25 26 27 28 29 30 31 32 33 34 35

000
FTUS43 KDDC 300521
TAFHYS
TAF
KHYS 300521Z 3006/0106 15011KT P6SM SCT040 BKN090
     FM300800 18015G25KT P6SM VCTS SCT025 BKN040CB
     FM301200 19010KT P6SM BKN040
     FM301600 21014G20KT P6SM SCT040=

USA.gov is the U.S. government's official web portal to all federal, state and local government web resources and services.